Irmo, SC

10:29 PM EDT on September 01, 2015 (GMT -0400)
Ashford | | Change Station
CLOSE
Current Station
Personal Weather Station
Location: Irmo, SC
Elevation: 318 ft
Nearby Weather Stations

Elev 318 ft 34.15 °N, 81.23 °W | Updated 2 seconds ago

Clear
Clear
71.8 °F
Feels Like 71.8 °F
N
0.0
Wind Variable Wind from North
Gusts 0.0 mph

Today
High -- | Low -- °F
--% Chance of Precip.
Yesterday
High -- | Low -- °F
Precip. -- in
6:58 AM 7:51 PM
Waning Gibbous, 84% visible
Pressure 30.06 in
Visibility 10.0 miles
Clouds Scattered Clouds 20000 ft
Dew Point 70 °F
Humidity 94%
Rainfall 0.00 in
Snow Depth Not available.
UV 0 out of 12
Pollen 8.40 out of 12
Air Quality Not available.
Flu Activity Not available.
METAR KCAE 020156Z 00000KT 10SM SCT200 27/21 A3007 RMK AO2 SLP179 T02670211
Pressure 30.06 in
Visibility 10.0 miles
Clouds Scattered Clouds 20000 ft
Dew Point 70 °F
Humidity 94%
Rainfall 0.00 in
Snow Depth Not available.
UV 0 out of 12
Pollen 8.40 out of 12
Air Quality Not available.
Flu Activity Not available.
METAR KCAE 020156Z 00000KT 10SM SCT200 27/21 A3007 RMK AO2 SLP179 T02670211

10-Day Weather Forecast

×

Almanac

Astronomy

Sep. 01, 2015 Rise Set
Actual Time
Civil Twilight
Nautical Twilight
Astronomical Twilight
Moon
Length of Visible Light
Length of Day
Tomorrow will be .
, % of the Moon is Illuminated

Today's Extremes

State Highs State Lows

Community

WunderPhotos

Upload Photos

1,851,679 photos uploaded!

WunderBlogs® & News

Nearby

Air Quality

  Air Quality AQ Index Pollutant
Not available.

Snow Depth

Station Depth Elevation

Earthquake Activity

City Distance Mag. Time & Date
Minimum magnitude displayed is 2.5.

Coastal Water Temperatures

Place Temperature

Stations

Nearby Weather Stations

Station Location Temp. Windchill Dew Point Humidity Wind Precip. Elev Updated Type